sensor_id;sensor_type;location;lat;lon;timestamp;pressure;altitude;pressure_sealevel;temperature
74321;BMP280;62738;45.772;4.804;2023-08-20T00:00:56;99881.03;;;30.67
74321;BMP280;62738;45.772;4.804;2023-08-20T00:03:23;99888.19;;;30.64
74321;BMP280;62738;45.772;4.804;2023-08-20T00:05:51;99886.03;;;30.60
74321;BMP280;62738;45.772;4.804;2023-08-20T00:08:18;99886.75;;;30.63
74321;BMP280;62738;45.772;4.804;2023-08-20T00:10:45;99888.88;;;30.60
74321;BMP280;62738;45.772;4.804;2023-08-20T00:13:11;99891.00;;;30.52
74321;BMP280;62738;45.772;4.804;2023-08-20T00:15:38;99899.59;;;30.52
74321;BMP280;62738;45.772;4.804;2023-08-20T00:18:05;99883.81;;;30.32
74321;BMP280;62738;45.772;4.804;2023-08-20T00:20:32;99889.53;;;30.36
74321;BMP280;62738;45.772;4.804;2023-08-20T00:23:00;99883.75;;;30.20
74321;BMP280;62738;45.772;4.804;2023-08-20T00:25:27;99888.75;;;30.12
74321;BMP280;62738;45.772;4.804;2023-08-20T00:27:54;99887.38;;;30.27
74321;BMP280;62738;45.772;4.804;2023-08-20T00:30:20;99890.94;;;30.23
74321;BMP280;62738;45.772;4.804;2023-08-20T00:32:47;99880.94;;;30.24
74321;BMP280;62738;45.772;4.804;2023-08-20T00:35:15;99884.50;;;30.21
74321;BMP280;62738;45.772;4.804;2023-08-20T00:37:41;99883.06;;;30.28
74321;BMP280;62738;45.772;4.804;2023-08-20T00:40:09;99880.22;;;30.22
74321;BMP280;62738;45.772;4.804;2023-08-20T00:42:36;99883.78;;;30.28
74321;BMP280;62738;45.772;4.804;2023-08-20T00:45:04;99888.88;;;30.52
74321;BMP280;62738;45.772;4.804;2023-08-20T00:47:31;99889.59;;;30.57
74321;BMP280;62738;45.772;4.804;2023-08-20T00:49:58;99896.75;;;30.46
74321;BMP280;62738;45.772;4.804;2023-08-20T00:52:25;99890.31;;;30.63
74321;BMP280;62738;45.772;4.804;2023-08-20T00:54:52;99891.03;;;30.56
74321;BMP280;62738;45.772;4.804;2023-08-20T00:57:19;99893.88;;;30.52
74321;BMP280;62738;45.772;4.804;2023-08-20T00:59:47;99900.31;;;30.56
74321;BMP280;62738;45.772;4.804;2023-08-20T01:02:17;99893.88;;;30.62
74321;BMP280;62738;45.772;4.804;2023-08-20T01:04:45;99895.34;;;30.69
74321;BMP280;62738;45.772;4.804;2023-08-20T01:10:29;99898.22;;;30.75
74321;BMP280;62738;45.772;4.804;2023-08-20T01:13:00;99897.50;;;30.86
74321;BMP280;62738;45.772;4.804;2023-08-20T01:15:27;99894.63;;;30.88
74321;BMP280;62738;45.772;4.804;2023-08-20T01:17:54;99901.81;;;30.91
74321;BMP280;62738;45.772;4.804;2023-08-20T01:20:26;99891.78;;;30.90
74321;BMP280;62738;45.772;4.804;2023-08-20T01:23:18;99898.94;;;30.93
74321;BMP280;62738;45.772;4.804;2023-08-20T01:26:08;99894.66;;;30.94
74321;BMP280;62738;45.772;4.804;2023-08-20T01:28:38;99899.66;;;30.94
74321;BMP280;62738;45.772;4.804;2023-08-20T01:31:06;99898.94;;;30.91
74321;BMP280;62738;45.772;4.804;2023-08-20T01:33:34;99894.63;;;30.92
74321;BMP280;62738;45.772;4.804;2023-08-20T01:36:00;99895.34;;;30.93
74321;BMP280;62738;45.772;4.804;2023-08-20T01:38:27;99899.66;;;30.96
74321;BMP280;62738;45.772;4.804;2023-08-20T01:40:54;99902.53;;;31.02
74321;BMP280;62738;45.772;4.804;2023-08-20T01:43:22;99903.94;;;30.95
74321;BMP280;62738;45.772;4.804;2023-08-20T01:45:49;99910.41;;;30.93
74321;BMP280;62738;45.772;4.804;2023-08-20T01:48:15;99901.06;;;30.87
74321;BMP280;62738;45.772;4.804;2023-08-20T01:50:42;99908.94;;;30.84
74321;BMP280;62738;45.772;4.804;2023-08-20T01:53:09;99908.94;;;30.84
74321;BMP280;62738;45.772;4.804;2023-08-20T01:55:36;99916.81;;;30.84
74321;BMP280;62738;45.772;4.804;2023-08-20T01:58:03;99915.41;;;30.87
74321;BMP280;62738;45.772;4.804;2023-08-20T02:00:29;99920.41;;;30.82
74321;BMP280;62738;45.772;4.804;2023-08-20T02:02:57;99919.00;;;30.83
74321;BMP280;62738;45.772;4.804;2023-08-20T02:05:24;99923.28;;;30.84
74321;BMP280;62738;45.772;4.804;2023-08-20T02:07:51;99922.56;;;30.88
74321;BMP280;62738;45.772;4.804;2023-08-20T02:10:17;99927.59;;;30.75
74321;BMP280;62738;45.772;4.804;2023-08-20T02:12:44;99933.28;;;30.61
74321;BMP280;62738;45.772;4.804;2023-08-20T02:15:11;99931.09;;;30.54
74321;BMP280;62738;45.772;4.804;2023-08-20T02:17:38;99937.53;;;30.56
74321;BMP280;62738;45.772;4.804;2023-08-20T02:20:05;99940.38;;;30.40
74321;BMP280;62738;45.772;4.804;2023-08-20T02:22:33;99945.25;;;30.05
74321;BMP280;62738;45.772;4.804;2023-08-20T02:25:00;99940.03;;;29.71
74321;BMP280;62738;45.772;4.804;2023-08-20T02:27:27;99952.81;;;29.52
74321;BMP280;62738;45.772;4.804;2023-08-20T02:29:54;99951.03;;;29.11
74321;BMP280;62738;45.772;4.804;2023-08-20T02:32:20;99949.38;;;28.86
74321;BMP280;62738;45.772;4.804;2023-08-20T02:34:51;99956.50;;;28.85
74321;BMP280;62738;45.772;4.804;2023-08-20T02:37:18;99947.69;;;28.65
74321;BMP280;62738;45.772;4.804;2023-08-20T02:39:45;99947.72;;;28.69
74321;BMP280;62738;45.772;4.804;2023-08-20T02:42:11;99942.94;;;28.85
74321;BMP280;62738;45.772;4.804;2023-08-20T02:44:38;99938.50;;;28.74
74321;BMP280;62738;45.772;4.804;2023-08-20T02:47:04;99946.38;;;28.74
74321;BMP280;62738;45.772;4.804;2023-08-20T02:49:31;99942.22;;;28.85
74321;BMP280;62738;45.772;4.804;2023-08-20T02:51:58;99935.88;;;28.98
74321;BMP280;62738;45.772;4.804;2023-08-20T02:54:24;99943.00;;;28.95
74321;BMP280;62738;45.772;4.804;2023-08-20T02:56:52;99945.19;;;28.99
74321;BMP280;62738;45.772;4.804;2023-08-20T02:59:19;99938.94;;;29.16
74321;BMP280;62738;45.772;4.804;2023-08-20T03:01:46;99946.09;;;29.20
74321;BMP280;62738;45.772;4.804;2023-08-20T03:04:13;99943.28;;;29.24
74321;BMP280;62738;45.772;4.804;2023-08-20T03:06:40;99949.78;;;29.36
74321;BMP280;62738;45.772;4.804;2023-08-20T03:09:06;99959.81;;;29.39
74321;BMP280;62738;45.772;4.804;2023-08-20T03:11:33;99947.69;;;29.41
74321;BMP280;62738;45.772;4.804;2023-08-20T03:14:00;99941.94;;;29.35
74321;BMP280;62738;45.772;4.804;2023-08-20T03:16:26;99946.16;;;29.28
74321;BMP280;62738;45.772;4.804;2023-08-20T03:18:53;99951.13;;;29.27
74321;BMP280;62738;45.772;4.804;2023-08-20T03:21:20;99946.91;;;29.32
74321;BMP280;62738;45.772;4.804;2023-08-20T03:23:46;99947.03;;;29.48
74321;BMP280;62738;45.772;4.804;2023-08-20T03:26:13;99944.78;;;29.35
74321;BMP280;62738;45.772;4.804;2023-08-20T03:28:39;99954.00;;;29.21
74321;BMP280;62738;45.772;4.804;2023-08-20T03:31:06;99955.34;;;29.14
74321;BMP280;62738;45.772;4.804;2023-08-20T03:33:33;99955.41;;;29.20
74321;BMP280;62738;45.772;4.804;2023-08-20T03:35:59;99951.78;;;29.15
74321;BMP280;62738;45.772;4.804;2023-08-20T03:38:26;99955.34;;;29.14
74321;BMP280;62738;45.772;4.804;2023-08-20T03:40:54;99952.47;;;29.12
74321;BMP280;62738;45.772;4.804;2023-08-20T03:43:21;99956.06;;;29.14
74321;BMP280;62738;45.772;4.804;2023-08-20T03:45:51;99962.31;;;28.99
74321;BMP280;62738;45.772;4.804;2023-08-20T03:48:18;99956.56;;;28.93
74321;BMP280;62738;45.772;4.804;2023-08-20T03:50:45;99960.81;;;28.90
74321;BMP280;62738;45.772;4.804;2023-08-20T03:53:12;99962.25;;;28.89
74321;BMP280;62738;45.772;4.804;2023-08-20T03:55:38;99972.22;;;28.86
74321;BMP280;62738;45.772;4.804;2023-08-20T03:58:05;99968.63;;;28.85
74321;BMP280;62738;45.772;4.804;2023-08-20T04:00:34;99968.53;;;28.77
74321;BMP280;62738;45.772;4.804;2023-08-20T04:03:01;99969.88;;;28.70
74321;BMP280;62738;45.772;4.804;2023-08-20T04:05:28;99957.03;;;28.71
74321;BMP280;62738;45.772;4.804;2023-08-20T04:07:54;99962.13;;;28.79
74321;BMP280;62738;45.772;4.804;2023-08-20T04:10:21;99962.13;;;28.79
74321;BMP280;62738;45.772;4.804;2023-08-20T04:12:48;99965.13;;;28.89
74321;BMP280;62738;45.772;4.804;2023-08-20T04:15:14;99972.28;;;28.92
74321;BMP280;62738;45.772;4.804;2023-08-20T04:17:41;99966.63;;;29.00
74321;BMP280;62738;45.772;4.804;2023-08-20T04:20:08;99968.81;;;29.05
74321;BMP280;62738;45.772;4.804;2023-08-20T04:22:36;99966.72;;;29.10
74321;BMP280;62738;45.772;4.804;2023-08-20T04:25:04;99978.91;;;29.14
74321;BMP280;62738;45.772;4.804;2023-08-20T04:27:32;99979.66;;;29.17
74321;BMP280;62738;45.772;4.804;2023-08-20T04:30:00;99981.78;;;29.16
74321;BMP280;62738;45.772;4.804;2023-08-20T04:32:27;99991.09;;;29.19
74321;BMP280;62738;45.772;4.804;2023-08-20T04:34:54;99991.81;;;29.20
74321;BMP280;62738;45.772;4.804;2023-08-20T04:37:21;99998.28;;;29.22
74321;BMP280;62738;45.772;4.804;2023-08-20T04:39:47;100006.91;;;29.30
74321;BMP280;62738;45.772;4.804;2023-08-20T04:42:14;100004.56;;;29.08
74321;BMP280;62738;45.772;4.804;2023-08-20T04:44:40;100010.50;;;28.65
74321;BMP280;62738;45.772;4.804;2023-08-20T04:47:11;100006.72;;;28.48
74321;BMP280;62738;45.772;4.804;2023-08-20T04:49:39;100011.00;;;28.47
74321;BMP280;62738;45.772;4.804;2023-08-20T04:52:06;100016.06;;;28.52
74321;BMP280;62738;45.772;4.804;2023-08-20T04:54:32;100020.28;;;28.47
74321;BMP280;62738;45.772;4.804;2023-08-20T04:56:59;100015.28;;;28.48
74321;BMP280;62738;45.772;4.804;2023-08-20T04:59:26;100020.41;;;28.58
74321;BMP280;62738;45.772;4.804;2023-08-20T05:01:53;100016.94;;;28.67
74321;BMP280;62738;45.772;4.804;2023-08-20T05:04:19;100024.78;;;28.67
74321;BMP280;62738;45.772;4.804;2023-08-20T05:06:46;100025.53;;;28.67
74321;BMP280;62738;45.772;4.804;2023-08-20T05:09:13;100028.56;;;28.81
74321;BMP280;62738;45.772;4.804;2023-08-20T05:11:39;100030.50;;;28.65
74321;BMP280;62738;45.772;4.804;2023-08-20T05:14:06;100033.31;;;28.63
74321;BMP280;62738;45.772;4.804;2023-08-20T05:16:33;100026.94;;;28.68
74321;BMP280;62738;45.772;4.804;2023-08-20T05:18:59;100034.19;;;28.77
74321;BMP280;62738;45.772;4.804;2023-08-20T05:21:26;100032.88;;;28.86
74321;BMP280;62738;45.772;4.804;2023-08-20T05:23:53;100030.88;;;28.97
74321;BMP280;62738;45.772;4.804;2023-08-20T05:26:19;100027.34;;;29.02
74321;BMP280;62738;45.772;4.804;2023-08-20T05:28:46;100036.56;;;28.97
74321;BMP280;62738;45.772;4.804;2023-08-20T05:31:13;100037.94;;;28.90
74321;BMP280;62738;45.772;4.804;2023-08-20T05:33:39;100046.50;;;28.88
74321;BMP280;62738;45.772;4.804;2023-08-20T05:36:06;100037.13;;;28.83
74321;BMP280;62738;45.772;4.804;2023-08-20T05:38:32;100045.47;;;28.63
74321;BMP280;62738;45.772;4.804;2023-08-20T05:40:59;100039.69;;;28.57
74321;BMP280;62738;45.772;4.804;2023-08-20T05:43:26;100040.47;;;28.64
74321;BMP280;62738;45.772;4.804;2023-08-20T05:45:52;100048.94;;;28.55
74321;BMP280;62738;45.772;4.804;2023-08-20T05:48:19;100052.34;;;28.44
74321;BMP280;62738;45.772;4.804;2023-08-20T05:50:45;100056.09;;;28.56
74321;BMP280;62738;45.772;4.804;2023-08-20T05:53:12;100061.84;;;28.61
74321;BMP280;62738;45.772;4.804;2023-08-20T05:55:39;100059.13;;;28.73
74321;BMP280;62738;45.772;4.804;2023-08-20T05:58:06;100060.59;;;28.76
74321;BMP280;62738;45.772;4.804;2023-08-20T06:00:33;100069.19;;;28.78
74321;BMP280;62738;45.772;4.804;2023-08-20T06:02:59;100063.59;;;28.86
74321;BMP280;62738;45.772;4.804;2023-08-20T06:05:26;100076.56;;;28.97
74321;BMP280;62738;45.772;4.804;2023-08-20T06:07:53;100078.06;;;29.02
74321;BMP280;62738;45.772;4.804;2023-08-20T06:10:20;100070.28;;;29.06
74321;BMP280;62738;45.772;4.804;2023-08-20T06:12:46;100068.84;;;29.07
74321;BMP280;62738;45.772;4.804;2023-08-20T06:15:14;100073.59;;;28.85
74321;BMP280;62738;45.772;4.804;2023-08-20T06:17:41;100070.72;;;28.83
74321;BMP280;62738;45.772;4.804;2023-08-20T06:20:08;100077.16;;;28.85
74321;BMP280;62738;45.772;4.804;2023-08-20T06:22:35;100076.28;;;28.73
74321;BMP280;62738;45.772;4.804;2023-08-20T06:25:02;100071.91;;;28.64
74321;BMP280;62738;45.772;4.804;2023-08-20T06:27:29;100079.06;;;28.69
74321;BMP280;62738;45.772;4.804;2023-08-20T06:29:56;100083.25;;;28.60
74321;BMP280;62738;45.772;4.804;2023-08-20T06:32:23;100081.34;;;28.78
74321;BMP280;62738;45.772;4.804;2023-08-20T06:34:50;100079.44;;;28.97
74321;BMP280;62738;45.772;4.804;2023-08-20T06:37:17;100082.38;;;29.03
74321;BMP280;62738;45.772;4.804;2023-08-20T06:39:43;100088.16;;;29.09
74321;BMP280;62738;45.772;4.804;2023-08-20T06:42:10;100084.72;;;29.21
74321;BMP280;62738;45.772;4.804;2023-08-20T06:44:37;100089.75;;;29.24
74321;BMP280;62738;45.772;4.804;2023-08-20T06:47:04;100083.31;;;29.26
74321;BMP280;62738;45.772;4.804;2023-08-20T06:49:30;100089.78;;;29.28
74321;BMP280;62738;45.772;4.804;2023-08-20T06:51:57;100089.84;;;29.36
74321;BMP280;62738;45.772;4.804;2023-08-20T06:54:23;100084.09;;;29.32
74321;BMP280;62738;45.772;4.804;2023-08-20T06:56:50;100085.50;;;29.29
74321;BMP280;62738;45.772;4.804;2023-08-20T06:59:17;100089.72;;;29.22
74321;BMP280;62738;45.772;4.804;2023-08-20T07:01:43;100084.19;;;29.40
74321;BMP280;62738;45.772;4.804;2023-08-20T07:04:10;100088.59;;;29.51
74321;BMP280;62738;45.772;4.804;2023-08-20T07:06:37;100082.19;;;29.55
74321;BMP280;62738;45.772;4.804;2023-08-20T07:09:04;100089.34;;;29.56
74321;BMP280;62738;45.772;4.804;2023-08-20T07:11:30;100087.22;;;29.58
74321;BMP280;62738;45.772;4.804;2023-08-20T07:13:57;100080.03;;;29.55
74321;BMP280;62738;45.772;4.804;2023-08-20T07:16:23;100090.91;;;29.71
74321;BMP280;62738;45.772;4.804;2023-08-20T07:18:50;100089.47;;;29.70
74321;BMP280;62738;45.772;4.804;2023-08-20T07:21:17;100084.38;;;29.60
74321;BMP280;62738;45.772;4.804;2023-08-20T07:23:43;100100.78;;;29.58
74321;BMP280;62738;45.772;4.804;2023-08-20T07:26:11;100087.41;;;29.78
74321;BMP280;62738;45.772;4.804;2023-08-20T07:28:42;100090.16;;;29.68
74321;BMP280;62738;45.772;4.804;2023-08-20T07:31:24;100092.34;;;29.74
74321;BMP280;62738;45.772;4.804;2023-08-20T07:33:53;100093.19;;;29.85
74321;BMP280;62738;45.772;4.804;2023-08-20T07:36:22;100097.50;;;29.94
74321;BMP280;62738;45.772;4.804;2023-08-20T07:38:50;100094.75;;;30.04
74321;BMP280;62738;45.772;4.804;2023-08-20T07:41:17;100097.00;;;30.21
74321;BMP280;62738;45.772;4.804;2023-08-20T07:43:46;100098.47;;;30.28
74321;BMP280;62738;45.772;4.804;2023-08-20T07:46:14;100101.31;;;30.24
74321;BMP280;62738;45.772;4.804;2023-08-20T07:48:41;100103.50;;;30.30
74321;BMP280;62738;45.772;4.804;2023-08-20T07:51:08;100104.16;;;30.20
74321;BMP280;62738;45.772;4.804;2023-08-20T07:53:35;100102.09;;;30.33
74321;BMP280;62738;45.772;4.804;2023-08-20T07:56:02;100104.31;;;30.49
74321;BMP280;62738;45.772;4.804;2023-08-20T07:58:28;100094.34;;;30.58
74321;BMP280;62738;45.772;4.804;2023-08-20T08:00:56;100102.28;;;30.67
74321;BMP280;62738;45.772;4.804;2023-08-20T08:03:25;100100.88;;;30.76
74321;BMP280;62738;45.772;4.804;2023-08-20T08:05:53;100100.91;;;30.84
74321;BMP280;62738;45.772;4.804;2023-08-20T08:08:23;100099.50;;;30.93
74321;BMP280;62738;45.772;4.804;2023-08-20T08:10:50;100102.34;;;30.89
74321;BMP280;62738;45.772;4.804;2023-08-20T08:13:21;100105.28;;;31.01
74321;BMP280;62738;45.772;4.804;2023-08-20T08:15:49;100102.44;;;31.06
74321;BMP280;62738;45.772;4.804;2023-08-20T08:18:16;100107.41;;;31.03
74321;BMP280;62738;45.772;4.804;2023-08-20T08:20:42;100108.88;;;31.04
74321;BMP280;62738;45.772;4.804;2023-08-20T08:23:09;100103.88;;;31.19
74321;BMP280;62738;45.772;4.804;2023-08-20T08:25:36;100105.34;;;31.32
74321;BMP280;62738;45.772;4.804;2023-08-20T08:28:04;100108.19;;;31.42
74321;BMP280;62738;45.772;4.804;2023-08-20T08:30:31;100102.47;;;31.42
74321;BMP280;62738;45.772;4.804;2023-08-20T08:32:58;100103.91;;;31.55
74321;BMP280;62738;45.772;4.804;2023-08-20T08:35:25;100109.69;;;31.59
74321;BMP280;62738;45.772;4.804;2023-08-20T08:37:51;100098.91;;;31.63
74321;BMP280;62738;45.772;4.804;2023-08-20T08:40:18;100101.75;;;31.71
74321;BMP280;62738;45.772;4.804;2023-08-20T08:42:49;100103.19;;;31.75
74321;BMP280;62738;45.772;4.804;2023-08-20T08:45:18;100101.78;;;31.74
74321;BMP280;62738;45.772;4.804;2023-08-20T08:47:47;100101.06;;;31.85
74321;BMP280;62738;45.772;4.804;2023-08-20T08:50:14;100103.91;;;31.93
74321;BMP280;62738;45.772;4.804;2023-08-20T08:52:41;100091.69;;;31.99
74321;BMP280;62738;45.772;4.804;2023-08-20T08:55:09;100095.31;;;31.93
74321;BMP280;62738;45.772;4.804;2023-08-20T08:57:36;100106.78;;;31.77
74321;BMP280;62738;45.772;4.804;2023-08-20T09:00:04;100101.06;;;31.93
74321;BMP280;62738;45.772;4.804;2023-08-20T09:02:32;100096.72;;;31.98
74321;BMP280;62738;45.772;4.804;2023-08-20T09:04:58;100102.47;;;31.98
74321;BMP280;62738;45.772;4.804;2023-08-20T09:07:25;100098.16;;;31.99
74321;BMP280;62738;45.772;4.804;2023-08-20T09:09:58;100096.72;;;32.06
74321;BMP280;62738;45.772;4.804;2023-08-20T09:12:26;100089.53;;;32.01
74321;BMP280;62738;45.772;4.804;2023-08-20T09:14:53;100089.53;;;32.01
74321;BMP280;62738;45.772;4.804;2023-08-20T09:17:27;100090.25;;;32.24
74321;BMP280;62738;45.772;4.804;2023-08-20T09:19:55;100089.47;;;32.38
74321;BMP280;62738;45.772;4.804;2023-08-20T09:22:26;100085.16;;;32.34
74321;BMP280;62738;45.772;4.804;2023-08-20T09:24:55;100090.19;;;32.34
74321;BMP280;62738;45.772;4.804;2023-08-20T09:27:22;100089.41;;;32.54
74321;BMP280;62738;45.772;4.804;2023-08-20T09:29:52;100089.34;;;32.68
74321;BMP280;62738;45.772;4.804;2023-08-20T09:32:27;100092.91;;;32.76
74321;BMP280;62738;45.772;4.804;2023-08-20T09:34:55;100092.19;;;32.74
74321;BMP280;62738;45.772;4.804;2023-08-20T09:37:23;100087.91;;;32.69
74321;BMP280;62738;45.772;4.804;2023-08-20T09:39:50;100086.41;;;32.82
74321;BMP280;62738;45.772;4.804;2023-08-20T09:42:17;100084.97;;;32.83
74321;BMP280;62738;45.772;4.804;2023-08-20T09:44:45;100084.16;;;32.96
74321;BMP280;62738;45.772;4.804;2023-08-20T09:47:17;100087.13;;;32.84
74321;BMP280;62738;45.772;4.804;2023-08-20T09:49:47;100092.16;;;32.82
74321;BMP280;62738;45.772;4.804;2023-08-20T09:52:25;100092.16;;;32.84
74321;BMP280;62738;45.772;4.804;2023-08-20T09:55:00;100089.16;;;32.98
74321;BMP280;62738;45.772;4.804;2023-08-20T09:57:34;100084.81;;;33.07
74321;BMP280;62738;45.772;4.804;2023-08-20T10:00:03;100088.28;;;33.24
74321;BMP280;62738;45.772;4.804;2023-08-20T10:02:33;100089.66;;;33.33
74321;BMP280;62738;45.772;4.804;2023-08-20T10:05:00;100093.81;;;33.50
74321;BMP280;62738;45.772;4.804;2023-08-20T10:07:29;100091.66;;;33.54
74321;BMP280;62738;45.772;4.804;2023-08-20T10:10:04;100091.63;;;33.52
74321;BMP280;62738;45.772;4.804;2023-08-20T10:12:32;100093.06;;;33.53
74321;BMP280;62738;45.772;4.804;2023-08-20T10:15:00;100098.00;;;33.67
74321;BMP280;62738;45.772;4.804;2023-08-20T10:17:32;100082.63;;;33.95
74321;BMP280;62738;45.772;4.804;2023-08-20T10:20:02;100087.06;;;33.82
74321;BMP280;62738;45.772;4.804;2023-08-20T10:22:40;100084.88;;;33.84
74321;BMP280;62738;45.772;4.804;2023-08-20T10:25:31;100084.06;;;33.94
74321;BMP280;62738;45.772;4.804;2023-08-20T10:28:22;100076.06;;;34.00
74321;BMP280;62738;45.772;4.804;2023-08-20T10:33:48;100070.25;;;34.08
74321;BMP280;62738;45.772;4.804;2023-08-20T10:36:20;100069.63;;;34.00
74321;BMP280;62738;45.772;4.804;2023-08-20T10:38:56;100058.06;;;34.02
74321;BMP280;62738;45.772;4.804;2023-08-20T10:41:28;100054.91;;;34.26
74321;BMP280;62738;45.772;4.804;2023-08-20T10:43:59;100055.44;;;34.40
74321;BMP280;62738;45.772;4.804;2023-08-20T10:46:29;100044.50;;;34.49
74321;BMP280;62738;45.772;4.804;2023-08-20T10:49:02;100054.63;;;34.46
74321;BMP280;62738;45.772;4.804;2023-08-20T10:51:34;100056.06;;;34.45
74321;BMP280;62738;45.772;4.804;2023-08-20T10:56:56;100047.16;;;34.65
74321;BMP280;62738;45.772;4.804;2023-08-20T10:59:30;100045.53;;;34.78
74321;BMP280;62738;45.772;4.804;2023-08-20T11:01:58;100039.03;;;34.78
74321;BMP280;62738;45.772;4.804;2023-08-20T11:04:28;100041.31;;;34.71
74321;BMP280;62738;45.772;4.804;2023-08-20T11:06:59;100036.28;;;34.70
74321;BMP280;62738;45.772;4.804;2023-08-20T11:09:28;100031.81;;;34.81
74321;BMP280;62738;45.772;4.804;2023-08-20T11:11:55;100033.06;;;34.94
74321;BMP280;62738;45.772;4.804;2023-08-20T11:14:23;100022.34;;;34.86
74321;BMP280;62738;45.772;4.804;2023-08-20T11:16:50;100023.59;;;34.99
74321;BMP280;62738;45.772;4.804;2023-08-20T11:19:21;100025.09;;;34.96
74321;BMP280;62738;45.772;4.804;2023-08-20T11:21:48;100028.75;;;34.93
74321;BMP280;62738;45.772;4.804;2023-08-20T11:24:16;100013.34;;;35.06
74321;BMP280;62738;45.772;4.804;2023-08-20T11:26:44;100015.38;;;35.16
74321;BMP280;62738;45.772;4.804;2023-08-20T11:29:13;100010.00;;;35.35
74321;BMP280;62738;45.772;4.804;2023-08-20T11:31:40;100005.81;;;35.28
74321;BMP280;62738;45.772;4.804;2023-08-20T11:34:07;100006.06;;;35.13
74321;BMP280;62738;45.772;4.804;2023-08-20T11:36:34;100006.22;;;35.03
74321;BMP280;62738;45.772;4.804;2023-08-20T11:39:02;100013.75;;;35.27
74321;BMP280;62738;45.772;4.804;2023-08-20T11:41:29;100004.34;;;35.29
74321;BMP280;62738;45.772;4.804;2023-08-20T11:43:55;100001.44;;;35.29
74321;BMP280;62738;45.772;4.804;2023-08-20T11:46:23;100002.78;;;35.34
74321;BMP280;62738;45.772;4.804;2023-08-20T11:49:03;99994.06;;;35.38
74321;BMP280;62738;45.772;4.804;2023-08-20T11:51:50;99996.81;;;35.46
74321;BMP280;62738;45.772;4.804;2023-08-20T11:54:18;99985.97;;;35.46
74321;BMP280;62738;45.772;4.804;2023-08-20T11:56:49;99990.22;;;35.51
74321;BMP280;62738;45.772;4.804;2023-08-20T11:59:20;99985.53;;;35.68
74321;BMP280;62738;45.772;4.804;2023-08-20T12:01:52;99980.50;;;35.67
74321;BMP280;62738;45.772;4.804;2023-08-20T12:04:18;99983.91;;;35.77
74321;BMP280;62738;45.772;4.804;2023-08-20T12:07:10;99976.50;;;35.86
74321;BMP280;62738;45.772;4.804;2023-08-20T12:09:40;99974.84;;;35.96
74321;BMP280;62738;45.772;4.804;2023-08-20T12:12:08;99978.22;;;36.08
74321;BMP280;62738;45.772;4.804;2023-08-20T12:14:35;99976.28;;;36.29
74321;BMP280;62738;45.772;4.804;2023-08-20T12:17:02;99979.56;;;36.13
74321;BMP280;62738;45.772;4.804;2023-08-20T12:19:32;99969.97;;;36.23
74321;BMP280;62738;45.772;4.804;2023-08-20T12:21:58;99973.84;;;36.42
74321;BMP280;62738;45.772;4.804;2023-08-20T12:24:25;99975.03;;;36.53
74321;BMP280;62738;45.772;4.804;2023-08-20T12:26:52;99975.31;;;36.41
74321;BMP280;62738;45.772;4.804;2023-08-20T12:29:19;99975.44;;;36.35
74321;BMP280;62738;45.772;4.804;2023-08-20T12:31:46;99975.31;;;36.41
74321;BMP280;62738;45.772;4.804;2023-08-20T12:34:13;99975.88;;;36.47
74321;BMP280;62738;45.772;4.804;2023-08-20T12:36:40;99981.22;;;36.65
74321;BMP280;62738;45.772;4.804;2023-08-20T12:39:07;99979.06;;;36.64
74321;BMP280;62738;45.772;4.804;2023-08-20T12:41:34;99971.00;;;36.68
74321;BMP280;62738;45.772;4.804;2023-08-20T12:44:05;99967.84;;;36.81
74321;BMP280;62738;45.772;4.804;2023-08-20T12:46:32;99965.84;;;37.02
74321;BMP280;62738;45.772;4.804;2023-08-20T12:48:58;99962.78;;;37.08
74321;BMP280;62738;45.772;4.804;2023-08-20T12:51:26;99954.06;;;37.10
74321;BMP280;62738;45.772;4.804;2023-08-20T12:53:52;99949.50;;;37.17
74321;BMP280;62738;45.772;4.804;2023-08-20T12:56:19;99952.84;;;37.27
74321;BMP280;62738;45.772;4.804;2023-08-20T12:58:46;99953.56;;;37.28
74321;BMP280;62738;45.772;4.804;2023-08-20T13:01:12;99958.78;;;37.21
74321;BMP280;62738;45.772;4.804;2023-08-20T13:03:39;99947.25;;;37.19
74321;BMP280;62738;45.772;4.804;2023-08-20T13:06:06;99942.00;;;37.28
74321;BMP280;62738;45.772;4.804;2023-08-20T13:08:33;99941.81;;;37.34
74321;BMP280;62738;45.772;4.804;2023-08-20T13:11:03;99939.84;;;37.51
74321;BMP280;62738;45.772;4.804;2023-08-20T13:13:32;99942.47;;;37.61
74321;BMP280;62738;45.772;4.804;2023-08-20T13:16:00;99938.13;;;37.62
74321;BMP280;62738;45.772;4.804;2023-08-20T13:18:27;99935.38;;;37.56
74321;BMP280;62738;45.772;4.804;2023-08-20T13:20:54;99931.66;;;37.35
74321;BMP280;62738;45.772;4.804;2023-08-20T13:23:21;99924.56;;;37.30
74321;BMP280;62738;45.772;4.804;2023-08-20T13:25:48;99921.44;;;37.38
74321;BMP280;62738;45.772;4.804;2023-08-20T13:28:14;99923.19;;;37.52
74321;BMP280;62738;45.772;4.804;2023-08-20T13:30:41;99922.47;;;37.51
74321;BMP280;62738;45.772;4.804;2023-08-20T13:33:08;99918.13;;;37.52
74321;BMP280;62738;45.772;4.804;2023-08-20T13:35:34;99925.09;;;37.61
74321;BMP280;62738;45.772;4.804;2023-08-20T13:38:01;99912.41;;;37.50
74321;BMP280;62738;45.772;4.804;2023-08-20T13:40:29;99912.47;;;37.73
74321;BMP280;62738;45.772;4.804;2023-08-20T13:42:55;99909.88;;;37.85
74321;BMP280;62738;45.772;4.804;2023-08-20T13:45:22;99915.97;;;37.75
74321;BMP280;62738;45.772;4.804;2023-08-20T13:47:49;99913.72;;;37.78
74321;BMP280;62738;45.772;4.804;2023-08-20T13:50:16;99908.59;;;37.80
74321;BMP280;62738;45.772;4.804;2023-08-20T13:52:42;99914.19;;;37.86
74321;BMP280;62738;45.772;4.804;2023-08-20T13:55:09;99902.03;;;37.82
74321;BMP280;62738;45.772;4.804;2023-08-20T13:57:36;99898.31;;;37.61
74321;BMP280;62738;45.772;4.804;2023-08-20T14:00:04;99900.16;;;37.72
74321;BMP280;62738;45.772;4.804;2023-08-20T14:02:36;99898.47;;;37.79
74321;BMP280;62738;45.772;4.804;2023-08-20T14:05:04;99900.75;;;37.99
74321;BMP280;62738;45.772;4.804;2023-08-20T14:07:31;99894.31;;;38.19
74321;BMP280;62738;45.772;4.804;2023-08-20T14:09:59;99891.09;;;38.30
74321;BMP280;62738;45.772;4.804;2023-08-20T14:12:26;99890.78;;;38.38
74321;BMP280;62738;45.772;4.804;2023-08-20T14:14:53;99890.94;;;38.34